Ozark, IL (62972)

1:14 PM CDT on September 01, 2015 (GMT -0500)
St Marys Church on Old Hwy 13 | | Change Station
CLOSE
Current Station
Personal Weather Station
Location: Harrisburg, IL
Elevation: 400 ft
Nearby Weather Stations

Elev 400 ft 37.74 °N, 88.57 °W | Updated 2 minutes ago

Clear
Clear
96.4 °F
Feels Like 103 °F
N
2.7
Wind Variable Wind from SSE

Today
High -- | Low -- °F
--% Chance of Precip.
Yesterday
High -- | Low -- °F
Precip. -- in
6:25 AM 7:24 PM
Waning Gibbous, 87% visible
Pressure 30.12 in
Visibility 20.0 miles
Clouds Few 20000 ft
Heat Index 103 °F
Dew Point 70 °F
Humidity 42%
Rainfall 0.00 in
Snow Depth Not available.
UV 9 out of 12
Pollen 10.50 out of 12
Air Quality Not available.
Flu Activity Not available.
METAR KMWA 011751Z 19008KT 20SM FEW200 31/21 A3012
Pressure 30.12 in
Visibility 20.0 miles
Clouds Few 20000 ft
Heat Index 103 °F
Dew Point 70 °F
Humidity 42%
Rainfall 0.00 in
Snow Depth Not available.
UV 9 out of 12
Pollen 10.50 out of 12
Air Quality Not available.
Flu Activity Not available.
METAR KMWA 011751Z 19008KT 20SM FEW200 31/21 A3012

10-Day Weather Forecast

×

Almanac

Astronomy

Sep. 01, 2015 Rise Set
Actual Time
Civil Twilight
Nautical Twilight
Astronomical Twilight
Moon
Length of Visible Light
Length of Day
Tomorrow will be .
, % of the Moon is Illuminated

Today's Extremes

State Highs State Lows

Community

WunderPhotos

Upload Photos

1,851,592 photos uploaded!

WunderBlogs® & News

Nearby

Air Quality

  Air Quality AQ Index Pollutant
Not available.

Snow Depth

Station Depth Elevation

Earthquake Activity

City Distance Mag. Time & Date
Minimum magnitude displayed is 2.5.

Coastal Water Temperatures

Place Temperature

Stations

Nearby Weather Stations

Station Location Temp. Windchill Dew Point Humidity Wind Precip. Elev Updated Type